Time;durP1;ratioP1;P1;durP2;ratioP2;P2;SDS_P1;SDS_P2;PMS_P1;PMS_P2;Temp;Humidity;BMP_temperature;BMP_pressure;BME280_temperature;BME280_humidity;BME280_pressure;Samples;Min_cycle;Max_cycle;Signal;HPM_P1;HPM_P2
2023/04/01 00:00:30;;;;;;;4.83;4.47;;;9.20;79.70;;;;;;6128683;28;20257;-89
2023/04/01 00:03:37;;;;;;;4.97;4.43;;;9.20;79.70;;;;;;6133523;28;20238;-89
2023/04/01 00:06:42;;;;;;;4.07;3.87;;;9.20;79.70;;;;;;6132820;29;20245;-90
2023/04/01 00:09:47;;;;;;;4.47;4.27;;;9.20;79.50;;;;;;6130829;28;20238;-90
2023/04/01 00:12:51;;;;;;;4.10;4.00;;;9.20;79.50;;;;;;6156238;29;20263;-88
2023/04/01 00:15:57;;;;;;;3.87;3.57;;;9.20;79.30;;;;;;6157959;28;20241;-91
2023/04/01 00:19:03;;;;;;;3.50;3.40;;;9.20;79.40;;;;;;6156523;28;20237;-89
2023/04/01 00:22:09;;;;;;;3.90;3.63;;;9.20;79.40;;;;;;6156082;29;20238;-89
2023/04/01 00:25:17;;;;;;;3.90;3.80;;;9.20;79.40;;;;;;6153719;28;20223;-89
2023/04/01 00:28:24;;;;;;;3.70;3.50;;;9.20;79.40;;;;;;6145054;28;20378;-88
2023/04/01 00:31:28;;;;;;;4.20;4.10;;;9.20;79.40;;;;;;6147098;28;20242;-90
2023/04/01 00:34:32;;;;;;;4.23;4.13;;;9.20;79.50;;;;;;6129432;28;20245;-89
2023/04/01 00:37:39;;;;;;;3.90;3.70;;;9.20;79.40;;;;;;6125161;29;20793;-89
2023/04/01 00:40:47;;;;;;;4.13;3.93;;;9.20;79.40;;;;;;6125841;29;20237;-89
2023/04/01 00:43:52;;;;;;;4.60;4.40;;;9.20;79.50;;;;;;6124331;28;20646;-89
2023/04/01 00:46:57;;;;;;;4.60;4.37;;;9.20;79.40;;;;;;6125989;28;20244;-88
2023/04/01 00:50:01;;;;;;;4.30;4.10;;;9.20;79.50;;;;;;6149007;28;20222;-87
2023/04/01 00:53:06;;;;;;;4.87;4.57;;;9.20;79.40;;;;;;6155047;28;20309;-89
2023/04/01 00:56:15;;;;;;;4.63;4.40;;;9.20;79.40;;;;;;6148472;29;20281;-89
2023/04/01 00:59:25;;;;;;;4.70;4.40;;;9.20;79.60;;;;;;6154928;28;20233;-89
2023/04/01 01:02:34;;;;;;;4.70;4.50;;;9.20;79.70;;;;;;6154414;28;20227;-90
2023/04/01 01:05:59;;;;;;;4.60;4.47;;;9.20;80.00;;;;;;6153667;28;20230;-91
2023/04/01 01:09:26;;;;;;;4.03;3.80;;;9.20;79.90;;;;;;6153514;29;20318;-90
2023/04/01 01:12:36;;;;;;;4.57;4.27;;;9.20;79.70;;;;;;6141651;28;20231;-90
2023/04/01 01:15:47;;;;;;;4.70;4.33;;;9.20;79.80;;;;;;6149225;29;20264;-91
2023/04/01 01:18:58;;;;;;;4.30;4.07;;;9.20;79.80;;;;;;6148913;28;20250;-89
2023/04/01 01:22:16;;;;;;;4.80;4.40;;;9.20;79.90;;;;;;6119701;28;20307;-90
2023/04/01 01:25:32;;;;;;;5.80;3.90;;;9.30;79.90;;;;;;6114600;29;20274;-90
2023/04/01 01:28:45;;;;;;;4.80;4.50;;;9.20;80.00;;;;;;6125790;28;20302;-88
2023/04/01 01:32:02;;;;;;;4.93;4.60;;;9.30;79.90;;;;;;6124313;29;20352;-91
2023/04/01 01:35:17;;;;;;;4.90;4.60;;;9.30;79.90;;;;;;6146771;28;20225;-89
2023/04/01 01:38:24;;;;;;;5.00;4.80;;;9.20;80.10;;;;;;6156135;28;20214;-91
2023/04/01 01:41:28;;;;;;;5.27;4.83;;;9.20;80.10;;;;;;6148687;28;20240;-89
2023/04/01 01:44:34;;;;;;;4.53;4.23;;;9.20;80.20;;;;;;6149904;28;20222;-90
2023/04/01 01:47:41;;;;;;;4.17;3.97;;;9.20;80.40;;;;;;6150946;28;20238;-88
2023/04/01 01:50:49;;;;;;;4.60;4.20;;;9.20;80.50;;;;;;6138066;28;20718;-90
2023/04/01 01:53:52;;;;;;;4.07;3.87;;;9.20;80.80;;;;;;6132543;29;20274;-90
2023/04/01 01:57:05;;;;;;;4.20;3.90;;;9.10;80.90;;;;;;6135050;28;20249;-89
2023/04/01 02:00:14;;;;;;;3.87;3.77;;;9.00;81.20;;;;;;6124600;29;20277;-90
2023/04/01 02:03:20;;;;;;;4.13;3.83;;;9.00;81.10;;;;;;6126143;29;20786;-88
2023/04/01 02:06:31;;;;;;;4.50;4.20;;;9.10;81.00;;;;;;6124420;28;20320;-87
2023/04/01 02:09:35;;;;;;;4.40;4.10;;;9.10;81.00;;;;;;6125972;28;20242;-89
2023/04/01 02:12:43;;;;;;;3.83;3.60;;;9.10;81.20;;;;;;6102116;29;20918;-89
2023/04/01 02:15:51;;;;;;;4.17;3.87;;;9.10;81.20;;;;;;6132121;28;20301;-91
2023/04/01 02:18:57;;;;;;;4.20;3.93;;;9.20;81.00;;;;;;6124145;28;20231;-91
2023/04/01 02:22:05;;;;;;;3.73;3.53;;;9.20;80.90;;;;;;6116694;28;20253;-88
2023/04/01 02:25:14;;;;;;;4.30;4.00;;;9.20;80.80;;;;;;6134749;29;20726;-91
2023/04/01 02:28:23;;;;;;;3.90;3.60;;;9.20;80.70;;;;;;6124009;28;20635;-89
2023/04/01 02:31:27;;;;;;;3.90;3.60;;;9.20;80.80;;;;;;6117650;28;20279;-90
2023/04/01 02:34:31;;;;;;;3.13;3.10;;;9.20;80.80;;;;;;6123484;28;20238;-87
2023/04/01 02:37:36;;;;;;;3.63;3.53;;;9.20;80.80;;;;;;6124368;29;20245;-89
2023/04/01 02:40:48;;;;;;;4.27;4.07;;;9.20;80.70;;;;;;6125501;28;20237;-91
2023/04/01 02:43:52;;;;;;;4.23;3.93;;;9.20;80.70;;;;;;6126607;28;20253;-90
2023/04/01 02:46:57;;;;;;;4.50;4.00;;;9.20;80.60;;;;;;6123564;28;20242;-91
2023/04/01 02:50:00;;;;;;;6.87;3.80;;;9.30;80.40;;;;;;6115552;28;20246;-89
2023/04/01 02:53:06;;;;;;;3.90;3.80;;;9.30;80.20;;;;;;6122936;28;20246;-86
2023/04/01 02:56:09;;;;;;;4.37;4.00;;;9.20;80.20;;;;;;6122190;29;20329;-91
2023/04/01 02:59:14;;;;;;;3.47;3.27;;;9.20;80.20;;;;;;6117355;29;20316;-89
2023/04/01 03:02:18;;;;;;;5.10;4.10;;;9.20;80.30;;;;;;6115939;29;20333;-90
2023/04/01 03:05:25;;;;;;;3.97;3.77;;;9.20;80.30;;;;;;6124614;28;20244;-89
2023/04/01 03:08:29;;;;;;;4.00;3.80;;;9.30;80.10;;;;;;6116612;28;20306;-89
2023/04/01 03:11:33;;;;;;;4.30;4.00;;;9.30;80.10;;;;;;6115736;28;20730;-90
2023/04/01 03:14:36;;;;;;;4.20;4.03;;;9.40;80.10;;;;;;6123782;28;20398;-90
2023/04/01 03:17:42;;;;;;;3.90;3.77;;;9.40;80.00;;;;;;6124208;28;20281;-88
2023/04/01 03:20:46;;;;;;;4.60;4.20;;;9.40;80.00;;;;;;6119959;28;20348;-90
2023/04/01 03:23:52;;;;;;;3.73;3.63;;;9.30;80.00;;;;;;6123169;28;20325;-88
2023/04/01 03:26:56;;;;;;;4.20;3.90;;;9.40;80.00;;;;;;6123319;28;20240;-89
2023/04/01 03:30:00;;;;;;;4.20;3.80;;;9.40;80.00;;;;;;6120045;28;20237;-88
2023/04/01 03:33:07;;;;;;;4.20;3.90;;;9.40;79.80;;;;;;6122832;28;20245;-89
2023/04/01 03:36:12;;;;;;;4.00;3.87;;;9.40;79.80;;;;;;6131347;28;20508;-89
2023/04/01 03:39:18;;;;;;;3.50;3.30;;;9.40;79.80;;;;;;6127186;29;20324;-90
2023/04/01 03:42:22;;;;;;;3.70;3.60;;;9.40;79.90;;;;;;6130771;28;20237;-91
2023/04/01 03:45:26;;;;;;;3.70;3.60;;;9.40;79.80;;;;;;6120090;28;20230;-90
2023/04/01 03:48:30;;;;;;;4.40;4.10;;;9.40;79.70;;;;;;6126867;28;20242;-90
2023/04/01 03:51:33;;;;;;;4.17;3.97;;;9.30;79.80;;;;;;6131142;29;20242;-90
2023/04/01 03:54:40;;;;;;;4.00;3.80;;;9.30;79.90;;;;;;6135533;28;20301;-91
2023/04/01 03:57:45;;;;;;;4.53;4.10;;;9.40;79.80;;;;;;6133060;28;20245;-90
2023/04/01 04:00:48;;;;;;;4.10;3.93;;;9.40;79.70;;;;;;6127303;29;20238;-90
2023/04/01 04:03:53;;;;;;;4.53;4.20;;;9.40;79.70;;;;;;6130194;29;20234;-90
2023/04/01 04:06:57;;;;;;;4.13;3.93;;;9.40;79.60;;;;;;6130948;28;20241;-89
2023/04/01 04:10:07;;;;;;;5.03;4.10;;;9.40;79.60;;;;;;6152547;28;20233;-89
2023/04/01 04:13:10;;;;;;;4.37;4.07;;;9.40;79.60;;;;;;6140009;29;20301;-81
2023/04/01 04:16:17;;;;;;;4.73;4.20;;;9.40;79.70;;;;;;6122895;28;20250;-82
2023/04/01 04:19:20;;;;;;;5.27;4.77;;;9.40;79.80;;;;;;6117450;28;20411;-81
2023/04/01 04:22:24;;;;;;;4.57;4.17;;;9.40;79.70;;;;;;6119409;28;20238;-82
2023/04/01 04:25:28;;;;;;;5.17;4.80;;;9.40;79.70;;;;;;6121286;29;20241;-78
2023/04/01 04:28:31;;;;;;;5.37;4.87;;;9.40;79.70;;;;;;6120580;28;20231;-81
2023/04/01 04:31:35;;;;;;;4.53;4.17;;;9.40;79.50;;;;;;6122779;28;20238;-80
2023/04/01 04:34:38;;;;;;;5.33;4.57;;;9.40;79.20;;;;;;6118758;29;20337;-80
2023/04/01 04:37:41;;;;;;;5.00;4.70;;;9.40;79.30;;;;;;6117866;29;20246;-80
2023/04/01 04:40:46;;;;;;;6.47;4.70;;;9.40;79.40;;;;;;6116590;28;20242;-80
2023/04/01 04:43:54;;;;;;;5.10;4.70;;;9.40;79.40;;;;;;6118156;28;20248;-80
2023/04/01 04:47:28;;;;;;;4.93;4.60;;;9.40;79.50;;;;;;6295409;27;20546;-80
2023/04/01 04:50:32;;;;;;;5.33;4.87;;;9.40;79.70;;;;;;6275253;28;20295;-79
2023/04/01 04:53:35;;;;;;;6.57;5.03;;;9.40;79.80;;;;;;6275699;28;20248;-77
2023/04/01 04:56:38;;;;;;;4.53;4.23;;;9.40;79.90;;;;;;6283311;28;20245;-80
2023/04/01 04:59:50;;;;;;;5.73;5.33;;;9.40;79.90;;;;;;6283573;28;20236;-79
2023/04/01 05:02:58;;;;;;;6.63;5.00;;;9.40;80.00;;;;;;6277364;28;20628;-80
2023/04/01 05:06:01;;;;;;;4.93;4.63;;;9.40;79.80;;;;;;6281483;28;20237;-79
2023/04/01 05:09:04;;;;;;;5.57;5.03;;;9.40;79.90;;;;;;6284725;28;20233;-79
2023/04/01 05:12:12;;;;;;;4.90;4.67;;;9.40;80.00;;;;;;6282170;28;20237;-79
2023/04/01 05:15:15;;;;;;;5.47;4.90;;;9.40;80.00;;;;;;6269605;28;20237;-79
2023/04/01 05:18:23;;;;;;;5.40;4.90;;;9.40;80.10;;;;;;6256980;28;20234;-79
2023/04/01 05:21:26;;;;;;;5.20;4.70;;;9.40;80.20;;;;;;6257510;28;20344;-80
2023/04/01 05:24:29;;;;;;;5.37;4.97;;;9.40;80.10;;;;;;6257709;28;20238;-80
2023/04/01 05:27:33;;;;;;;5.63;5.20;;;9.40;80.20;;;;;;6253524;28;20237;-77
2023/04/01 05:30:36;;;;;;;5.53;5.07;;;9.50;80.20;;;;;;6247764;28;20242;-77
2023/04/01 05:33:41;;;;;;;5.57;5.00;;;9.50;80.20;;;;;;6253788;28;20234;-79
2023/04/01 05:36:45;;;;;;;4.90;4.70;;;9.40;80.50;;;;;;6250214;28;20233;-81
2023/04/01 05:39:48;;;;;;;7.07;6.33;;;9.40;80.90;;;;;;6263286;28;20249;-80
2023/04/01 05:42:51;;;;;;;5.60;5.10;;;9.40;81.00;;;;;;6259371;28;20234;-78
2023/04/01 05:45:54;;;;;;;5.23;4.93;;;9.40;81.20;;;;;;6251686;28;20236;-77
2023/04/01 05:48:59;;;;;;;6.00;5.50;;;9.40;81.20;;;;;;6253655;28;20226;-77
2023/04/01 05:52:02;;;;;;;5.13;4.77;;;9.40;81.00;;;;;;6257799;28;20230;-78
2023/04/01 05:55:06;;;;;;;5.30;4.93;;;9.40;81.10;;;;;;6256667;28;20241;-77
2023/04/01 05:58:09;;;;;;;5.20;4.70;;;9.40;81.10;;;;;;6241870;28;20230;-78
2023/04/01 06:01:12;;;;;;;5.90;5.40;;;9.40;81.20;;;;;;6231622;28;20719;-78
2023/04/01 06:04:19;;;;;;;6.47;4.90;;;9.50;81.00;;;;;;6236272;28;20603;-77
2023/04/01 06:07:23;;;;;;;5.33;4.87;;;9.40;81.20;;;;;;6239301;28;20348;-77
2023/04/01 06:10:37;;;;;;;5.70;5.33;;;9.40;81.30;;;;;;6241045;28;20243;-76
2023/04/01 06:13:58;;;;;;;5.73;5.40;;;9.50;81.20;;;;;;6240448;28;20239;-76
2023/04/01 06:17:18;;;;;;;7.27;5.30;;;9.50;81.00;;;;;;6251194;28;20825;-77
2023/04/01 06:20:27;;;;;;;6.07;5.77;;;9.50;81.10;;;;;;6259766;28;20238;-76
2023/04/01 06:23:42;;;;;;;5.30;4.90;;;9.60;81.00;;;;;;6261642;28;20244;-76
2023/04/01 06:26:53;;;;;;;4.80;4.47;;;9.60;80.90;;;;;;6261696;28;20310;-77
2023/04/01 06:30:06;;;;;;;5.97;5.13;;;9.60;81.10;;;;;;6259528;28;20227;-78
2023/04/01 06:33:23;;;;;;;7.00;5.60;;;9.60;81.20;;;;;;6250627;28;20600;-77
2023/04/01 06:36:49;;;;;;;7.73;7.13;;;9.60;81.20;;;;;;6264090;28;20289;-77
2023/04/01 06:40:04;;;;;;;6.03;5.53;;;9.60;81.10;;;;;;6260626;28;20241;-77
2023/04/01 06:43:14;;;;;;;7.07;6.60;;;9.70;81.20;;;;;;6267027;28;20237;-76
2023/04/01 06:46:24;;;;;;;6.30;5.90;;;9.70;81.20;;;;;;6265728;28;20244;-78
2023/04/01 06:49:45;;;;;;;6.17;5.57;;;9.70;81.10;;;;;;6258894;28;20234;-76
2023/04/01 06:52:59;;;;;;;7.33;6.50;;;9.70;81.20;;;;;;6257224;28;20234;-77
2023/04/01 06:56:07;;;;;;;6.17;5.80;;;9.70;81.00;;;;;;6260220;28;20298;-77
2023/04/01 06:59:17;;;;;;;7.33;6.63;;;9.70;81.20;;;;;;6264745;28;20234;-76
2023/04/01 07:02:29;;;;;;;7.57;6.43;;;9.70;81.20;;;;;;6264783;28;21207;-77
2023/04/01 07:05:35;;;;;;;6.67;6.17;;;9.70;81.20;;;;;;6246118;28;20230;-78
2023/04/01 07:08:44;;;;;;;5.67;5.27;;;9.80;80.80;;;;;;6244455;28;20234;-79
2023/04/01 07:11:47;;;;;;;7.13;6.53;;;9.80;80.90;;;;;;6260710;28;20734;-78
2023/04/01 07:14:53;;;;;;;6.73;6.10;;;9.80;80.80;;;;;;6251524;28;20241;-77
2023/04/01 07:18:00;;;;;;;7.60;6.50;;;9.80;80.80;;;;;;6242788;28;20245;-77
2023/04/01 07:21:03;;;;;;;7.77;6.83;;;9.80;80.80;;;;;;6237143;28;20245;-77
2023/04/01 07:24:15;;;;;;;6.83;6.33;;;9.90;80.90;;;;;;6228540;28;20642;-78
2023/04/01 07:27:18;;;;;;;6.73;6.13;;;9.80;80.80;;;;;;6238813;28;20231;-78
2023/04/01 07:30:24;;;;;;;7.53;6.70;;;9.80;80.80;;;;;;6237365;28;20748;-77
2023/04/01 07:33:34;;;;;;;7.67;6.27;;;9.90;80.80;;;;;;6224172;28;20661;-76
2023/04/01 07:36:41;;;;;;;6.40;5.90;;;10.00;80.70;;;;;;6234827;28;20239;-77
2023/04/01 07:39:54;;;;;;;5.67;5.27;;;10.00;80.50;;;;;;6233469;28;20245;-78
2023/04/01 07:43:12;;;;;;;8.13;6.33;;;10.00;80.70;;;;;;6236010;28;20778;-77
2023/04/01 07:46:30;;;;;;;6.03;5.53;;;10.10;80.70;;;;;;6234579;28;20235;-78
2023/04/01 07:49:44;;;;;;;5.93;5.23;;;10.10;80.50;;;;;;6224889;28;20223;-77
2023/04/01 07:52:57;;;;;;;5.83;5.40;;;10.20;80.50;;;;;;6228339;28;20246;-78
2023/04/01 07:56:08;;;;;;;6.37;5.90;;;10.20;80.40;;;;;;6231872;28;20385;-76
2023/04/01 07:59:22;;;;;;;5.93;5.50;;;10.30;80.40;;;;;;6231486;28;20236;-79
2023/04/01 08:02:42;;;;;;;5.47;5.07;;;10.40;80.30;;;;;;6234732;28;20247;-79
2023/04/01 08:05:54;;;;;;;5.17;4.93;;;10.50;80.20;;;;;;6217839;28;20475;-77
2023/04/01 08:12:52;;;;;;;4.70;4.40;;;10.70;79.80;;;;;;6212604;28;21351;-77
2023/04/01 08:16:15;;;;;;;4.87;4.47;;;10.90;79.40;;;;;;6218070;28;20246;-76
2023/04/01 08:19:37;;;;;;;5.07;4.47;;;11.00;78.50;;;;;;6207856;28;20520;-78
2023/04/01 08:22:51;;;;;;;5.03;4.43;;;11.10;77.90;;;;;;6211096;28;20345;-78
2023/04/01 08:25:59;;;;;;;4.77;4.53;;;11.10;77.40;;;;;;6216915;28;20413;-75
2023/04/01 08:29:10;;;;;;;4.30;4.00;;;11.10;77.00;;;;;;6225643;28;20226;-79
2023/04/01 08:32:23;;;;;;;4.03;3.90;;;11.10;77.10;;;;;;6226620;28;20234;-79
2023/04/01 08:35:31;;;;;;;4.40;4.20;;;11.10;76.80;;;;;;6212881;28;20238;-75
2023/04/01 08:38:42;;;;;;;5.00;4.80;;;11.10;76.40;;;;;;6233692;28;20284;-78
2023/04/01 08:42:25;;;;;;;5.43;5.23;;;11.00;76.20;;;;;;6228186;28;20231;-76
2023/04/01 08:45:51;;;;;;;5.97;5.67;;;10.90;76.30;;;;;;6222256;28;20720;-76
2023/04/01 08:49:18;;;;;;;6.63;6.33;;;10.80;76.00;;;;;;6223751;28;20242;-79
2023/04/01 08:52:35;;;;;;;7.07;6.63;;;10.90;75.50;;;;;;6224084;28;20733;-77
2023/04/01 08:55:45;;;;;;;6.67;6.30;;;11.00;75.50;;;;;;6236449;28;20235;-77
2023/04/01 08:59:08;;;;;;;7.03;6.63;;;10.90;75.50;;;;;;6231727;28;20489;-78
2023/04/01 09:02:46;;;;;;;7.70;7.20;;;11.10;75.80;;;;;;6233185;28;20223;-77
2023/04/01 09:06:26;;;;;;;7.30;6.90;;;11.20;75.10;;;;;;6227497;28;20237;-76
2023/04/01 09:09:49;;;;;;;7.57;7.10;;;11.40;74.60;;;;;;6237531;28;20234;-75
2023/04/01 09:13:06;;;;;;;8.57;8.07;;;11.50;74.50;;;;;;6234995;28;20235;-78
2023/04/01 09:16:30;;;;;;;9.07;8.47;;;11.70;73.00;;;;;;6232140;28;20418;-78
2023/04/01 09:19:48;;;;;;;7.80;7.40;;;11.70;72.50;;;;;;6231952;28;20352;-77
2023/04/01 09:23:14;;;;;;;7.97;7.57;;;11.50;72.50;;;;;;6226805;28;20235;-78
2023/04/01 09:26:38;;;;;;;8.50;8.00;;;11.50;72.70;;;;;;6225874;28;20637;-78
2023/04/01 09:30:03;;;;;;;9.17;8.60;;;11.50;72.70;;;;;;6239672;28;20240;-78
2023/04/01 09:33:44;;;;;;;8.40;7.80;;;11.50;72.00;;;;;;6225294;28;20228;-77
2023/04/01 09:37:01;;;;;;;9.07;8.57;;;11.50;72.00;;;;;;6236887;28;20388;-77
2023/04/01 09:40:19;;;;;;;8.60;8.10;;;11.40;71.60;;;;;;6239826;28;20235;-77
2023/04/01 09:43:36;;;;;;;8.23;7.73;;;11.40;71.60;;;;;;6237255;28;20235;-78
2023/04/01 09:46:54;;;;;;;9.77;9.20;;;11.10;71.80;;;;;;6235650;28;20244;-76
2023/04/01 09:50:16;;;;;;;10.40;9.70;;;11.10;72.00;;;;;;6226884;28;20386;-78
2023/04/01 09:53:37;;;;;;;11.00;10.30;;;10.90;72.40;;;;;;6240074;28;20242;-78
2023/04/01 09:57:13;;;;;;;9.80;9.20;;;10.90;72.30;;;;;;6240390;28;20848;-78
2023/04/01 10:00:51;;;;;;;10.33;9.53;;;10.70;72.50;;;;;;6228592;28;20242;-74
2023/04/01 10:04:27;;;;;;;10.53;9.93;;;10.60;72.90;;;;;;6233312;28;20237;-79
2023/04/01 10:07:59;;;;;;;9.70;9.20;;;10.50;73.20;;;;;;6237938;28;20238;-78
2023/04/01 10:11:32;;;;;;;9.80;9.20;;;10.40;73.50;;;;;;6227230;28;20238;-79
2023/04/01 10:15:07;;;;;;;10.77;10.03;;;10.40;73.80;;;;;;6206135;28;20227;-74
2023/04/01 10:18:37;;;;;;;10.20;9.60;;;10.40;73.80;;;;;;6225648;28;20604;-78
2023/04/01 10:22:29;;;;;;;11.50;10.60;;;10.40;73.70;;;;;;6235777;28;20238;-77
2023/04/01 10:26:06;;;;;;;10.47;9.77;;;10.30;74.00;;;;;;6237700;28;20234;-76
2023/04/01 10:29:33;;;;;;;9.57;9.07;;;10.30;74.00;;;;;;6257285;28;20235;-78
2023/04/01 10:33:14;;;;;;;9.27;8.70;;;10.30;73.50;;;;;;6280113;28;20223;-77
2023/04/01 10:36:49;;;;;;;9.53;9.03;;;10.30;73.20;;;;;;6288830;28;20401;-76
2023/04/01 10:40:20;;;;;;;8.70;8.20;;;10.40;73.40;;;;;;6284096;28;20420;-76
2023/04/01 10:44:00;;;;;;;8.83;8.10;;;10.30;73.80;;;;;;6293942;28;20300;-77
2023/04/01 10:47:27;;;;;;;8.73;8.23;;;10.30;73.80;;;;;;6268247;28;20249;-77
2023/04/01 10:51:03;;;;;;;8.97;8.53;;;10.30;74.00;;;;;;6271377;28;20238;-77
2023/04/01 10:54:39;;;;;;;9.33;8.70;;;10.30;74.00;;;;;;6268109;28;20230;-78
2023/04/01 10:58:08;;;;;;;9.57;9.07;;;10.10;74.80;;;;;;6252573;28;20234;-77
2023/04/01 11:01:54;;;;;;;9.03;8.53;;;10.20;74.40;;;;;;6239294;28;20250;-77
2023/04/01 11:05:55;;;;;;;8.60;8.20;;;10.20;74.70;;;;;;6238112;28;20350;-77
2023/04/01 11:09:50;;;;;;;7.80;7.43;;;10.20;74.40;;;;;;6227377;28;20252;-78
2023/04/01 11:13:32;;;;;;;6.70;6.40;;;10.20;74.60;;;;;;6240565;28;20231;-78
2023/04/01 11:17:02;;;;;;;6.03;5.77;;;10.30;74.10;;;;;;6267428;28;20354;-78
2023/04/01 11:20:43;;;;;;;5.67;5.53;;;10.20;74.30;;;;;;6264369;28;20231;-77
2023/04/01 11:23:54;;;;;;;5.00;4.90;;;10.30;73.80;;;;;;6253858;28;20231;-78
2023/04/01 11:27:25;;;;;;;5.10;5.00;;;10.20;74.30;;;;;;6254478;28;20289;-77
2023/04/01 11:30:54;;;;;;;5.53;5.33;;;10.30;73.70;;;;;;6249670;28;20479;-77
2023/04/01 11:34:06;;;;;;;5.70;5.50;;;10.30;73.40;;;;;;6231846;28;20302;-77
2023/04/01 11:37:22;;;;;;;4.83;4.67;;;10.30;73.30;;;;;;6242965;28;20235;-78
2023/04/01 11:40:33;;;;;;;4.57;4.47;;;10.20;73.50;;;;;;6233667;28;20235;-78
2023/04/01 11:43:42;;;;;;;5.03;4.73;;;10.10;73.00;;;;;;6240461;28;20393;-78
2023/04/01 11:47:09;;;;;;;4.33;4.23;;;10.10;73.40;;;;;;6242988;28;20239;-77
2023/04/01 11:50:28;;;;;;;4.40;4.30;;;10.00;73.50;;;;;;6243263;28;20246;-77
2023/04/01 11:53:43;;;;;;;5.00;4.80;;;10.20;73.30;;;;;;6244736;28;20246;-78
2023/04/01 11:56:58;;;;;;;4.67;4.57;;;10.10;73.00;;;;;;6235778;28;20235;-76
2023/04/01 12:00:32;;;;;;;4.40;4.30;;;10.10;73.20;;;;;;6233601;28;20273;-77
2023/04/01 12:03:51;;;;;;;4.33;4.23;;;10.00;72.70;;;;;;6230008;28;20269;-78
2023/04/01 12:07:03;;;;;;;4.60;4.50;;;10.00;73.00;;;;;;6239290;28;20262;-77
2023/04/01 12:10:18;;;;;;;5.60;5.40;;;10.00;73.30;;;;;;6240838;28;20741;-77
2023/04/01 12:13:36;;;;;;;6.13;5.83;;;9.90;73.60;;;;;;6234422;28;20691;-76
2023/04/01 12:17:00;;;;;;;6.33;6.03;;;9.80;73.50;;;;;;6240376;28;20235;-78
2023/04/01 12:20:27;;;;;;;5.60;5.50;;;9.80;73.20;;;;;;6233982;28;20496;-78
2023/04/01 12:23:56;;;;;;;6.50;6.20;;;9.70;72.70;;;;;;6241249;28;20233;-78
2023/04/01 12:27:09;;;;;;;6.60;6.30;;;9.80;73.20;;;;;;6228401;28;20230;-78
2023/04/01 12:30:42;;;;;;;7.30;7.00;;;9.90;73.20;;;;;;6232749;28;20755;-76
2023/04/01 12:34:10;;;;;;;6.27;5.97;;;9.80;73.20;;;;;;6236310;28;20317;-78
2023/04/01 12:37:22;;;;;;;6.37;6.13;;;9.90;73.40;;;;;;6229635;28;20242;-77
2023/04/01 12:40:48;;;;;;;6.87;6.57;;;10.00;73.20;;;;;;6236248;28;20262;-80
2023/04/01 12:44:27;;;;;;;6.40;6.20;;;9.90;72.90;;;;;;6229121;28;20231;-77
2023/04/01 12:48:00;;;;;;;8.00;7.57;;;9.80;73.20;;;;;;6230039;28;20246;-79
2023/04/01 12:51:29;;;;;;;8.40;7.90;;;9.80;73.30;;;;;;6224980;28;20235;-76
2023/04/01 12:55:06;;;;;;;7.80;7.37;;;9.80;72.80;;;;;;6235880;28;20238;-79
2023/04/01 12:59:00;;;;;;;8.33;7.87;;;9.70;72.80;;;;;;6251348;28;20456;-77
2023/04/01 13:02:14;;;;;;;7.73;7.27;;;9.70;72.90;;;;;;6261814;28;20724;-78
2023/04/01 13:05:38;;;;;;;8.90;8.30;;;9.70;72.90;;;;;;6260570;28;20226;-76
2023/04/01 13:08:50;;;;;;;9.20;8.70;;;9.50;73.40;;;;;;6264517;28;20296;-77
2023/04/01 13:12:08;;;;;;;9.47;8.90;;;9.40;73.00;;;;;;6238683;28;20230;-78
2023/04/01 13:15:18;;;;;;;9.90;9.40;;;9.40;73.50;;;;;;6242305;28;20892;-77
2023/04/01 13:18:32;;;;;;;11.40;10.70;;;9.30;73.80;;;;;;6239343;28;20226;-77
2023/04/01 13:21:45;;;;;;;11.57;10.87;;;9.40;73.40;;;;;;6239823;28;20314;-75
2023/04/01 13:24:58;;;;;;;11.73;10.83;;;9.40;73.30;;;;;;6242762;28;20613;-78
2023/04/01 13:28:07;;;;;;;10.83;10.13;;;9.20;73.50;;;;;;6231083;28;20226;-78
2023/04/01 13:31:25;;;;;;;11.53;10.73;;;9.20;74.00;;;;;;6239397;28;20617;-75
2023/04/01 13:34:40;;;;;;;11.83;11.13;;;9.20;73.70;;;;;;6241745;28;20243;-77
2023/04/01 13:37:57;;;;;;;11.73;10.77;;;9.10;73.60;;;;;;6240970;28;20607;-77
2023/04/01 13:41:10;;;;;;;10.93;10.20;;;9.00;74.10;;;;;;6241835;28;20246;-75
2023/04/01 13:44:18;;;;;;;9.97;9.37;;;9.00;74.10;;;;;;6240182;28;20230;-77
2023/04/01 13:47:52;;;;;;;9.80;9.30;;;9.00;74.00;;;;;;6234176;28;20729;-79
2023/04/01 13:51:28;;;;;;;10.50;9.70;;;9.00;74.00;;;;;;6236318;28;20317;-77
2023/04/01 13:55:06;;;;;;;10.50;9.87;;;9.00;73.80;;;;;;6220141;28;20230;-79
2023/04/01 13:58:36;;;;;;;11.00;10.33;;;9.00;73.40;;;;;;6248712;28;20229;-78
2023/04/01 14:01:43;;;;;;;11.00;10.20;;;8.90;74.20;;;;;;6264553;28;20230;-77
2023/04/01 14:05:03;;;;;;;10.97;10.27;;;8.90;74.20;;;;;;6262791;28;20245;-75
2023/04/01 14:08:18;;;;;;;10.10;9.50;;;8.90;73.70;;;;;;6266282;28;20241;-78
2023/04/01 14:11:28;;;;;;;10.27;9.77;;;9.00;73.50;;;;;;6256779;28;21017;-77
2023/04/01 14:14:41;;;;;;;10.30;9.70;;;9.00;73.90;;;;;;6261138;28;20777;-78
2023/04/01 14:17:53;;;;;;;11.30;10.40;;;9.00;73.50;;;;;;6262284;28;20230;-78
2023/04/01 14:21:13;;;;;;;9.87;9.27;;;8.90;73.40;;;;;;6264780;28;20238;-77
2023/04/01 14:24:38;;;;;;;9.63;9.03;;;8.80;73.70;;;;;;6260355;28;20223;-77
2023/04/01 14:27:52;;;;;;;10.47;9.87;;;8.80;73.40;;;;;;6256340;28;20238;-77
2023/04/01 14:31:16;;;;;;;9.47;8.97;;;8.80;73.60;;;;;;6260652;28;20243;-77
2023/04/01 14:34:32;;;;;;;9.30;8.70;;;8.80;73.00;;;;;;6262447;28;20261;-77
2023/04/01 14:37:57;;;;;;;9.37;8.87;;;8.80;73.00;;;;;;6264621;28;20238;-77
2023/04/01 14:41:14;;;;;;;10.27;9.57;;;8.70;72.90;;;;;;6241469;28;20241;-77
2023/04/01 14:44:30;;;;;;;9.50;8.90;;;8.60;73.40;;;;;;6235134;28;20650;-78
2023/04/01 14:47:47;;;;;;;9.20;8.63;;;8.60;73.50;;;;;;6235470;28;20246;-77
2023/04/01 14:50:54;;;;;;;8.53;8.13;;;8.60;73.20;;;;;;6235519;28;20242;-78
2023/04/01 14:54:05;;;;;;;8.67;8.17;;;8.50;72.90;;;;;;6224364;28;20235;-77
2023/04/01 14:57:14;;;;;;;8.63;8.23;;;8.40;73.10;;;;;;6239012;28;20241;-79
2023/04/01 15:00:19;;;;;;;8.20;7.80;;;8.40;72.70;;;;;;6224535;28;20390;-78
2023/04/01 15:03:30;;;;;;;8.93;8.37;;;8.30;72.80;;;;;;6229597;28;20349;-77
2023/04/01 15:06:46;;;;;;;9.10;8.60;;;8.30;73.00;;;;;;6235731;28;20244;-78
2023/04/01 15:09:55;;;;;;;9.10;8.60;;;8.30;73.40;;;;;;6236759;28;20238;-78
2023/04/01 15:13:11;;;;;;;9.13;8.63;;;8.20;73.80;;;;;;6230528;28;20235;-77
2023/04/01 15:16:26;;;;;;;9.30;8.73;;;8.30;73.20;;;;;;6235388;28;20243;-77
2023/04/01 15:19:42;;;;;;;9.47;8.97;;;8.20;72.90;;;;;;6232507;28;20309;-76
2023/04/01 15:23:02;;;;;;;9.90;9.30;;;8.10;73.30;;;;;;6238178;28;20687;-76
2023/04/01 15:26:31;;;;;;;9.53;8.93;;;8.10;72.80;;;;;;6233899;28;20717;-77
2023/04/01 15:29:51;;;;;;;8.80;8.40;;;8.00;73.00;;;;;;6236579;28;20699;-78
2023/04/01 15:33:23;;;;;;;8.70;8.20;;;8.00;73.50;;;;;;6237657;28;20239;-75
2023/04/01 15:36:38;;;;;;;8.30;7.90;;;7.90;73.50;;;;;;6237372;28;20234;-77
2023/04/01 15:39:55;;;;;;;8.00;7.63;;;7.80;73.30;;;;;;6239418;28;20223;-78
2023/04/01 15:43:21;;;;;;;8.03;7.63;;;7.80;73.10;;;;;;6235344;28;20243;-76
2023/04/01 15:46:47;;;;;;;7.70;7.30;;;7.80;73.50;;;;;;6255645;28;20238;-79
2023/04/01 15:49:56;;;;;;;7.60;7.30;;;7.90;73.60;;;;;;6261911;28;20750;-75
2023/04/01 15:53:11;;;;;;;7.20;6.80;;;7.90;73.40;;;;;;6262238;28;20234;-76
2023/04/01 15:56:31;;;;;;;7.30;6.90;;;7.80;73.00;;;;;;6231775;28;20258;-76
2023/04/01 15:59:59;;;;;;;7.80;7.50;;;7.80;73.20;;;;;;6216485;28;20227;-78
2023/04/01 16:03:31;;;;;;;8.33;7.90;;;7.70;73.20;;;;;;6235329;28;20592;-78
2023/04/01 16:06:57;;;;;;;8.53;8.03;;;7.60;73.80;;;;;;6232211;28;20233;-76
2023/04/01 16:10:23;;;;;;;9.47;8.97;;;7.50;74.00;;;;;;6228501;28;20820;-77
2023/04/01 16:13:41;;;;;;;8.70;8.30;;;7.50;74.40;;;;;;6218881;28;20417;-79
2023/04/01 16:16:58;;;;;;;9.57;9.00;;;7.50;74.50;;;;;;6233687;28;20245;-78
2023/04/01 16:20:14;;;;;;;8.27;7.87;;;7.50;74.30;;;;;;6239871;28;20330;-78
2023/04/01 16:23:25;;;;;;;9.07;8.37;;;7.40;74.60;;;;;;6236529;28;20241;-77
2023/04/01 16:26:36;;;;;;;8.97;8.37;;;7.40;74.70;;;;;;6236954;28;20529;-77
2023/04/01 16:29:46;;;;;;;8.63;8.13;;;7.40;73.90;;;;;;6236956;28;20231;-78
2023/04/01 16:32:54;;;;;;;8.30;7.90;;;7.30;74.10;;;;;;6237769;28;20241;-76
2023/04/01 16:36:08;;;;;;;7.93;7.53;;;7.20;73.40;;;;;;6235383;28;20380;-76
2023/04/01 16:39:30;;;;;;;8.50;7.90;;;7.20;73.70;;;;;;6228256;28;20631;-75
2023/04/01 16:42:43;;;;;;;7.63;7.33;;;7.00;74.20;;;;;;6233248;28;20235;-77
2023/04/01 16:45:55;;;;;;;8.73;8.10;;;7.00;74.20;;;;;;6236580;28;20235;-78
2023/04/01 16:49:10;;;;;;;8.00;7.60;;;6.90;74.00;;;;;;6236761;28;20234;-78
2023/04/01 16:52:32;;;;;;;8.77;8.37;;;6.90;74.30;;;;;;6227716;28;20239;-76
2023/04/01 16:55:49;;;;;;;7.13;6.87;;;6.90;74.10;;;;;;6238137;28;20691;-78
2023/04/01 16:59:03;;;;;;;7.80;7.40;;;6.80;73.80;;;;;;6239147;28;20242;-78
2023/04/01 17:02:13;;;;;;;7.33;7.00;;;6.70;74.10;;;;;;6235182;28;20719;-78
2023/04/01 17:05:16;;;;;;;8.20;7.80;;;6.60;74.30;;;;;;6232660;28;20235;-77